Time;durP1;ratioP1;P1;durP2;ratioP2;P2;SDS_P1;SDS_P2;PMS_P1;PMS_P2;Temp;Humidity;BMP_temperature;BMP_pressure;BME280_temperature;BME280_humidity;BME280_pressure;Samples;Min_cycle;Max_cycle;Signal;HPM_P1;HPM_P2
2022/10/23 00:00:25;;;;;;;7.15;2.65;;;10.70;99.90;;;;;;1896912;74;21151;-75
2022/10/23 00:02:53;;;;;;;5.72;2.40;;;10.70;99.90;;;;;;1922084;75;21422;-76
2022/10/23 00:05:21;;;;;;;8.05;2.75;;;10.70;99.90;;;;;;1909862;74;21054;-76
2022/10/23 00:07:53;;;;;;;13.05;2.50;;;10.70;99.90;;;;;;1921853;74;21018;-76
2022/10/23 00:10:21;;;;;;;12.18;3.17;;;10.70;99.90;;;;;;1919204;73;21065;-76
2022/10/23 00:12:48;;;;;;;13.75;2.65;;;10.60;99.90;;;;;;1903401;74;21058;-76
2022/10/23 00:15:17;;;;;;;9.48;2.55;;;10.70;99.90;;;;;;1920057;74;21073;-76
2022/10/23 00:17:44;;;;;;;8.48;3.08;;;10.70;99.90;;;;;;1920090;74;21111;-76
2022/10/23 00:20:12;;;;;;;8.50;2.65;;;10.60;99.90;;;;;;1920054;74;21065;-76
2022/10/23 00:22:39;;;;;;;8.08;2.50;;;10.60;99.90;;;;;;1920833;73;21477;-76
2022/10/23 00:25:06;;;;;;;5.62;2.52;;;10.60;99.90;;;;;;1901929;74;21135;-76
2022/10/23 00:27:34;;;;;;;5.90;2.70;;;10.60;99.90;;;;;;1917070;74;21069;-76
2022/10/23 00:30:01;;;;;;;6.80;2.75;;;10.60;99.90;;;;;;1915149;74;21039;-76
2022/10/23 00:32:29;;;;;;;5.12;2.42;;;10.50;99.90;;;;;;1915036;75;21426;-76
2022/10/23 00:34:56;;;;;;;12.37;3.05;;;10.50;99.90;;;;;;1899159;74;21054;-75
2022/10/23 00:37:23;;;;;;;3.25;1.92;;;10.40;99.90;;;;;;1906142;74;21512;-76
2022/10/23 00:39:51;;;;;;;4.80;2.42;;;10.40;99.90;;;;;;1921643;74;21015;-76
2022/10/23 00:42:19;;;;;;;5.80;2.58;;;10.40;99.90;;;;;;1894219;74;21131;-76
2022/10/23 00:44:52;;;;;;;9.98;2.67;;;10.30;99.90;;;;;;1921536;74;21050;-76
2022/10/23 00:47:20;;;;;;;5.45;2.15;;;10.30;99.90;;;;;;1884208;74;21062;-76
2022/10/23 00:49:47;;;;;;;4.60;2.35;;;10.30;99.90;;;;;;1902346;75;21476;-76
2022/10/23 00:52:14;;;;;;;12.45;2.40;;;10.30;99.90;;;;;;1922140;75;21159;-74
2022/10/23 00:54:42;;;;;;;6.78;1.92;;;10.20;99.90;;;;;;1920072;74;21093;-74
2022/10/23 00:57:14;;;;;;;5.35;2.10;;;10.30;99.90;;;;;;1898573;74;21149;-74
2022/10/23 00:59:41;;;;;;;4.12;2.05;;;10.20;99.90;;;;;;1873364;76;21023;-73
2022/10/23 01:02:09;;;;;;;5.20;2.20;;;10.20;99.90;;;;;;1895684;74;21059;-74
2022/10/23 01:04:36;;;;;;;7.95;1.95;;;10.20;99.90;;;;;;1909332;74;21070;-74
2022/10/23 01:07:06;;;;;;;4.12;2.42;;;10.20;99.90;;;;;;1921236;74;21477;-75
2022/10/23 01:09:52;;;;;;;5.35;1.87;;;10.20;99.90;;;;;;1874990;74;21125;-75
2022/10/23 01:12:52;;;;;;;5.97;2.10;;;10.10;99.90;;;;;;1894404;74;21135;-75
2022/10/23 01:15:30;;;;;;;;;;;10.00;99.90;;;;;;1919092;74;21102;-76
2022/10/23 01:18:16;;;;;;;4.03;2.05;;;10.10;99.90;;;;;;1922110;74;20191;-75
2022/10/23 01:21:02;;;;;;;12.93;2.37;;;10.10;99.90;;;;;;1922165;74;21050;-73
2022/10/23 01:24:03;;;;;;;3.55;2.00;;;10.10;99.90;;;;;;1921206;74;21003;-75
2022/10/23 01:26:51;;;;;;;4.62;1.90;;;10.10;99.90;;;;;;1920262;74;21135;-75
2022/10/23 01:29:22;;;;;;;10.75;2.17;;;10.10;99.90;;;;;;1884869;74;21074;-73
2022/10/23 01:31:55;;;;;;;9.48;2.10;;;10.10;99.90;;;;;;1922023;75;21026;-75
2022/10/23 01:34:25;;;;;;;6.17;2.27;;;10.10;99.90;;;;;;1921148;74;21038;-75
2022/10/23 01:36:52;;;;;;;6.65;2.00;;;10.00;99.90;;;;;;1875339;74;21033;-75
2022/10/23 01:39:22;;;;;;;11.68;2.77;;;10.00;99.90;;;;;;1903000;75;21414;-75
2022/10/23 01:41:55;;;;;;;5.03;2.12;;;10.00;99.90;;;;;;1921340;74;21066;-75
2022/10/23 01:44:25;;;;;;;5.28;2.20;;;9.90;99.90;;;;;;1883166;74;21034;-74
2022/10/23 01:46:52;;;;;;;;;;;9.80;99.90;;;;;;1924481;74;21132;-75
2022/10/23 01:49:19;;;;;;;5.83;2.02;;;9.80;99.90;;;;;;1902242;75;20372;-74
2022/10/23 01:51:50;;;;;;;5.60;2.35;;;9.80;99.90;;;;;;1922110;75;21195;-75
2022/10/23 01:54:17;;;;;;;10.95;2.67;;;9.80;99.90;;;;;;1911913;73;21066;-75
2022/10/23 01:56:46;;;;;;;5.55;2.62;;;9.80;99.90;;;;;;1922148;75;21081;-75
2022/10/23 01:59:16;;;;;;;6.12;2.30;;;9.70;99.90;;;;;;1920989;74;21143;-74
2022/10/23 02:01:45;;;;;;;8.48;2.60;;;9.60;99.90;;;;;;1912491;74;21066;-74
2022/10/23 02:04:14;;;;;;;4.83;2.00;;;9.70;99.90;;;;;;1917329;74;21117;-74
2022/10/23 02:06:41;;;;;;;3.15;1.90;;;9.80;99.90;;;;;;1918841;74;21065;-74
2022/10/23 02:09:08;;;;;;;7.05;2.52;;;9.80;99.90;;;;;;1919889;73;21034;-74
2022/10/23 02:11:39;;;;;;;8.48;2.98;;;9.80;99.90;;;;;;1904684;75;21096;-74
2022/10/23 02:14:13;;;;;;;13.90;2.58;;;9.80;99.90;;;;;;1901933;74;21059;-74
2022/10/23 02:16:46;;;;;;;5.53;2.33;;;9.80;99.90;;;;;;1848332;73;21132;-75
2022/10/23 02:19:44;;;;;;;3.40;2.08;;;9.80;99.90;;;;;;1905813;74;21127;-75
2022/10/23 02:22:31;;;;;;;3.77;1.95;;;9.70;99.90;;;;;;1916036;73;21123;-74
2022/10/23 02:25:07;;;;;;;9.30;2.65;;;9.60;99.90;;;;;;1913295;74;21066;-75
2022/10/23 02:27:48;;;;;;;9.30;1.35;;;9.70;99.90;;;;;;1896875;76;21157;-73
2022/10/23 02:30:17;;;;;;;4.10;1.67;;;9.60;99.90;;;;;;1892925;75;21049;-75
2022/10/23 02:32:48;;;;;;;2.85;1.70;;;9.60;99.90;;;;;;1901840;73;21502;-75
2022/10/23 02:35:17;;;;;;;3.30;2.10;;;9.60;99.90;;;;;;1904600;74;21048;-75
2022/10/23 02:37:53;;;;;;;5.00;2.00;;;9.60;99.90;;;;;;1910312;74;21576;-75
2022/10/23 02:40:20;;;;;;;2.55;1.90;;;9.60;99.90;;;;;;1918295;74;21042;-74
2022/10/23 02:42:58;;;;;;;2.70;2.02;;;9.60;99.90;;;;;;1912402;74;21074;-75
2022/10/23 02:45:39;;;;;;;3.95;1.82;;;9.60;99.90;;;;;;1921042;74;21159;-75
2022/10/23 02:48:12;;;;;;;5.22;2.25;;;9.60;99.90;;;;;;1922039;74;21116;-75
2022/10/23 02:51:01;;;;;;;7.05;2.08;;;9.50;99.90;;;;;;1915631;74;21116;-75
2022/10/23 02:53:31;;;;;;;6.00;2.50;;;9.60;99.90;;;;;;1915773;75;21044;-75
2022/10/23 02:56:05;;;;;;;6.20;2.15;;;9.60;99.90;;;;;;1922121;73;21062;-75
2022/10/23 02:58:38;;;;;;;6.03;1.85;;;9.60;99.90;;;;;;1915414;74;21557;-75
2022/10/23 03:01:14;;;;;;;5.10;2.22;;;9.60;99.90;;;;;;1880577;74;21192;-75
2022/10/23 03:03:44;;;;;;;4.37;2.22;;;9.60;99.90;;;;;;1897733;74;21062;-75
2022/10/23 03:06:11;;;;;;;4.28;1.90;;;9.60;99.90;;;;;;1921258;74;21077;-75
2022/10/23 03:08:46;;;;;;;3.58;2.05;;;9.60;99.90;;;;;;1920940;74;21123;-75
2022/10/23 03:11:13;;;;;;;9.28;2.40;;;9.60;99.90;;;;;;1919604;74;21447;-75
2022/10/23 03:13:41;;;;;;;8.20;1.95;;;9.60;99.90;;;;;;1915237;74;21062;-74
2022/10/23 03:16:08;;;;;;;5.67;2.02;;;9.70;99.90;;;;;;1909191;74;21061;-75
2022/10/23 03:18:35;;;;;;;6.60;2.50;;;9.70;99.90;;;;;;1913879;73;21129;-75
2022/10/23 03:21:03;;;;;;;9.85;1.90;;;9.60;99.90;;;;;;1887730;74;21109;-75
2022/10/23 03:23:30;;;;;;;4.12;1.90;;;9.70;99.90;;;;;;1887690;74;21479;-75
2022/10/23 03:25:57;;;;;;;6.60;2.20;;;9.70;99.90;;;;;;1920253;74;21066;-74
2022/10/23 03:28:25;;;;;;;1.95;1.72;;;9.60;99.90;;;;;;1911514;74;21066;-75
2022/10/23 03:30:52;;;;;;;4.15;1.50;;;9.70;99.90;;;;;;1920198;74;21031;-74
2022/10/23 03:33:19;;;;;;;3.75;1.40;;;9.60;99.90;;;;;;1925892;75;21075;-75
2022/10/23 03:35:48;;;;;;;5.17;1.70;;;9.60;99.90;;;;;;1923157;73;21067;-75
2022/10/23 03:38:15;;;;;;;3.55;1.42;;;9.60;99.90;;;;;;1881926;74;21087;-75
2022/10/23 03:40:43;;;;;;;3.55;1.77;;;9.60;99.90;;;;;;1897528;74;21038;-75
2022/10/23 03:43:10;;;;;;;3.90;1.90;;;9.60;99.90;;;;;;1901718;74;21473;-73
2022/10/23 03:45:37;;;;;;;3.50;2.12;;;9.60;99.90;;;;;;1911970;74;21132;-74
2022/10/23 03:48:07;;;;;;;10.93;1.70;;;9.70;99.90;;;;;;1922242;75;21500;-74
2022/10/23 03:50:35;;;;;;;3.35;1.90;;;9.70;99.90;;;;;;1922235;75;21276;-75
2022/10/23 03:53:02;;;;;;;6.62;2.10;;;9.70;99.90;;;;;;1921085;74;21046;-75
2022/10/23 03:55:30;;;;;;;9.98;2.40;;;9.80;99.90;;;;;;1920952;73;21445;-75
2022/10/23 03:57:57;;;;;;;3.72;2.05;;;9.70;99.90;;;;;;1921003;73;21543;-75
2022/10/23 04:00:24;;;;;;;4.03;1.80;;;9.80;99.90;;;;;;1916653;73;21077;-75
2022/10/23 04:02:52;;;;;;;4.72;1.67;;;9.80;99.90;;;;;;1903832;74;21466;-74
2022/10/23 04:05:19;;;;;;;4.65;2.08;;;9.70;99.90;;;;;;1919946;74;21058;-75
2022/10/23 04:07:46;;;;;;;6.10;2.37;;;9.80;99.90;;;;;;1912762;74;21070;-75
2022/10/23 04:10:13;;;;;;;3.35;1.67;;;9.80;99.90;;;;;;1912801;74;21167;-75
2022/10/23 04:12:41;;;;;;;9.40;1.90;;;9.70;99.90;;;;;;1922226;75;21030;-74
2022/10/23 04:15:08;;;;;;;7.90;2.15;;;9.70;99.90;;;;;;1920588;74;21555;-75
2022/10/23 04:17:36;;;;;;;8.13;1.72;;;9.80;99.90;;;;;;1900082;74;21498;-75
2022/10/23 04:20:03;;;;;;;5.28;1.67;;;9.90;99.90;;;;;;1908943;74;21044;-74
2022/10/23 04:22:30;;;;;;;7.92;1.87;;;9.80;99.90;;;;;;1914050;75;21120;-75
2022/10/23 04:24:58;;;;;;;11.95;2.05;;;9.80;99.90;;;;;;1898984;74;21184;-74
2022/10/23 04:27:25;;;;;;;3.10;1.60;;;9.70;99.90;;;;;;1903211;74;21152;-75
2022/10/23 04:29:52;;;;;;;13.18;1.85;;;9.70;99.90;;;;;;1907433;74;21131;-74
2022/10/23 04:32:20;;;;;;;6.08;1.60;;;9.70;99.90;;;;;;1910995;74;21493;-74
2022/10/23 04:34:47;;;;;;;4.87;1.92;;;9.70;99.90;;;;;;1922220;75;21046;-76
2022/10/23 04:37:17;;;;;;;4.30;1.80;;;9.80;99.90;;;;;;1921139;74;21131;-75
2022/10/23 04:39:44;;;;;;;4.47;2.30;;;9.60;99.90;;;;;;1893292;73;21132;-76
2022/10/23 04:42:12;;;;;;;3.00;1.98;;;9.60;99.90;;;;;;1889859;74;21458;-75
2022/10/23 04:44:39;;;;;;;6.90;2.15;;;9.70;99.90;;;;;;1909012;75;21034;-75
2022/10/23 04:47:06;;;;;;;3.60;2.35;;;9.70;99.90;;;;;;1911109;74;21063;-74
2022/10/23 04:49:33;;;;;;;6.15;1.67;;;9.80;99.90;;;;;;1907854;74;21141;-74
2022/10/23 04:52:01;;;;;;;9.80;2.20;;;9.90;99.90;;;;;;1896818;74;21062;-73
2022/10/23 04:54:28;;;;;;;6.58;2.40;;;9.90;99.90;;;;;;1911063;74;21132;-73
2022/10/23 04:56:55;;;;;;;3.05;1.72;;;9.90;99.90;;;;;;1920235;74;21183;-75
2022/10/23 04:59:23;;;;;;;3.45;2.22;;;9.90;99.90;;;;;;1900145;74;21561;-76
2022/10/23 05:01:50;;;;;;;6.67;2.20;;;9.90;99.90;;;;;;1899183;73;21132;-74
2022/10/23 05:04:17;;;;;;;3.50;2.08;;;9.90;99.90;;;;;;1881889;74;21141;-75
2022/10/23 05:06:45;;;;;;;4.25;2.27;;;9.90;99.90;;;;;;1919310;74;21503;-75
2022/10/23 05:09:12;;;;;;;6.87;2.00;;;9.80;99.90;;;;;;1913798;74;21206;-76
2022/10/23 05:11:39;;;;;;;6.30;2.22;;;9.70;99.90;;;;;;1881902;75;21023;-75
2022/10/23 05:14:06;;;;;;;4.33;2.00;;;9.70;99.90;;;;;;1922175;74;21045;-75
2022/10/23 05:16:39;;;;;;;4.62;2.33;;;9.70;99.90;;;;;;1920887;74;21069;-75
2022/10/23 05:19:07;;;;;;;4.90;1.90;;;9.60;99.90;;;;;;1901750;74;21139;-75
2022/10/23 05:21:34;;;;;;;6.40;1.72;;;9.60;99.90;;;;;;1922557;75;21414;-76
2022/10/23 05:24:02;;;;;;;5.22;2.10;;;9.70;99.90;;;;;;1922239;75;21187;-76
2022/10/23 05:26:31;;;;;;;8.58;2.15;;;9.70;99.90;;;;;;1908082;74;21047;-75
2022/10/23 05:28:58;;;;;;;3.37;2.50;;;9.60;99.90;;;;;;1881905;74;21050;-75
2022/10/23 05:31:26;;;;;;;4.95;2.33;;;9.60;99.90;;;;;;1903100;74;21101;-75
2022/10/23 05:33:55;;;;;;;12.03;2.20;;;9.60;99.90;;;;;;1903041;74;21137;-76
2022/10/23 05:36:24;;;;;;;9.15;2.20;;;9.60;99.90;;;;;;1922297;75;21007;-74
2022/10/23 05:38:51;;;;;;;10.10;2.75;;;9.60;99.90;;;;;;1922332;74;21011;-76
2022/10/23 05:41:18;;;;;;;4.72;2.33;;;9.70;99.90;;;;;;1920342;74;21081;-75
2022/10/23 05:43:47;;;;;;;4.78;2.20;;;9.80;99.90;;;;;;1906583;74;21117;-75
2022/10/23 05:46:14;;;;;;;10.03;2.15;;;9.70;99.90;;;;;;1917715;75;21003;-75
2022/10/23 05:48:41;;;;;;;3.60;2.10;;;9.60;99.90;;;;;;1922327;75;21040;-74
2022/10/23 05:51:10;;;;;;;6.85;1.82;;;9.80;99.90;;;;;;1922305;74;21147;-74
2022/10/23 05:53:57;;;;;;;5.03;2.25;;;9.60;99.90;;;;;;1920253;74;21127;-74
2022/10/23 05:56:24;;;;;;;6.15;2.15;;;9.60;99.90;;;;;;1859625;77;21234;-74
2022/10/23 05:58:51;;;;;;;5.08;2.08;;;9.70;99.90;;;;;;1837116;77;21483;-73
2022/10/23 06:01:18;;;;;;;5.37;2.25;;;9.80;99.90;;;;;;1836260;77;21083;-73
2022/10/23 06:03:46;;;;;;;5.37;2.17;;;9.70;99.90;;;;;;1848533;77;21456;-75
2022/10/23 06:06:13;;;;;;;6.90;2.30;;;9.60;99.90;;;;;;1855681;76;21126;-75
2022/10/23 06:08:40;;;;;;;7.08;2.20;;;9.70;99.90;;;;;;1852301;76;21161;-75
2022/10/23 06:11:13;;;;;;;10.95;2.33;;;9.70;99.90;;;;;;1852495;77;21173;-74
2022/10/23 06:13:42;;;;;;;9.70;3.17;;;9.60;99.90;;;;;;1848538;75;21122;-77
2022/10/23 06:16:14;;;;;;;4.53;2.20;;;9.70;99.90;;;;;;1855734;77;21593;-75
2022/10/23 06:18:41;;;;;;;6.22;2.33;;;9.70;99.90;;;;;;1854222;77;21118;-76
2022/10/23 06:21:09;;;;;;;5.58;2.35;;;9.70;99.90;;;;;;1854220;76;21405;-73
2022/10/23 06:23:37;;;;;;;3.12;2.12;;;9.80;99.90;;;;;;1855661;76;21464;-75
2022/10/23 06:26:05;;;;;;;11.60;3.12;;;9.90;99.90;;;;;;1852224;77;21088;-73
2022/10/23 06:28:32;;;;;;;4.53;2.50;;;9.90;99.90;;;;;;1827651;77;21100;-72
2022/10/23 06:30:59;;;;;;;12.10;2.25;;;9.80;99.90;;;;;;1825158;78;21110;-72
2022/10/23 06:33:28;;;;;;;9.10;2.62;;;9.90;99.90;;;;;;1823942;78;21392;-73
2022/10/23 06:35:56;;;;;;;3.77;1.87;;;10.00;99.90;;;;;;1824725;78;21103;-73
2022/10/23 06:38:23;;;;;;;4.37;2.02;;;10.00;99.90;;;;;;1824784;78;21095;-73
2022/10/23 06:40:54;;;;;;;4.97;2.58;;;10.00;99.90;;;;;;1830342;78;21236;-74
2022/10/23 06:43:22;;;;;;;4.25;2.70;;;10.00;99.90;;;;;;1825089;78;21075;-75
2022/10/23 06:45:49;;;;;;;9.55;2.85;;;10.20;99.90;;;;;;1823510;78;21094;-76
2022/10/23 06:48:16;;;;;;;5.42;2.30;;;10.40;99.90;;;;;;1825584;79;21035;-75
2022/10/23 06:50:44;;;;;;;6.92;2.52;;;10.30;99.90;;;;;;1822061;77;21133;-77
2022/10/23 06:53:11;;;;;;;3.92;2.05;;;10.30;99.90;;;;;;1820929;78;21107;-75
2022/10/23 06:55:38;;;;;;;6.72;2.62;;;10.30;99.90;;;;;;1781018;79;21090;-75
2022/10/23 06:58:09;;;;;;;5.70;2.52;;;10.30;99.90;;;;;;1800170;79;21157;-75
2022/10/23 07:00:37;;;;;;;3.90;2.40;;;10.40;99.90;;;;;;1803273;79;21479;-74
2022/10/23 07:03:05;;;;;;;8.98;2.30;;;10.40;99.90;;;;;;1791541;79;21160;-75
2022/10/23 07:05:32;;;;;;;5.50;2.47;;;10.50;99.90;;;;;;1780534;79;21098;-73
2022/10/23 07:08:00;;;;;;;4.85;2.22;;;10.50;99.90;;;;;;1780371;79;21157;-76
2022/10/23 07:10:27;;;;;;;4.58;2.05;;;10.50;99.90;;;;;;1780434;79;21111;-75
2022/10/23 07:12:59;;;;;;;8.80;3.00;;;10.60;99.90;;;;;;1780338;79;21564;-74
2022/10/23 07:15:24;;;;;;;7.22;2.67;;;10.50;99.90;;;;;;1794796;79;21199;-77
2022/10/23 07:17:51;;;;;;;5.72;2.92;;;10.40;99.90;;;;;;1780412;79;21123;-75
2022/10/23 07:20:18;;;;;;;3.37;2.30;;;10.50;99.90;;;;;;1785095;79;21098;-77
2022/10/23 07:22:51;;;;;;;3.08;2.02;;;10.50;99.90;;;;;;1792884;78;21233;-80
2022/10/23 07:25:18;;;;;;;4.42;2.17;;;10.60;99.90;;;;;;1807720;79;21463;-80
2022/10/23 07:27:46;;;;;;;6.35;2.42;;;10.60;99.90;;;;;;1803133;78;21180;-78
2022/10/23 07:30:13;;;;;;;7.00;2.30;;;10.70;99.90;;;;;;1780668;80;21062;-78
2022/10/23 07:32:41;;;;;;;6.80;3.35;;;10.80;99.90;;;;;;1789697;79;21174;-80
2022/10/23 07:35:08;;;;;;;6.37;2.60;;;10.90;99.90;;;;;;1795174;79;21463;-81
2022/10/23 07:37:36;;;;;;;7.92;2.20;;;11.10;99.90;;;;;;1805239;79;21118;-76
2022/10/23 07:40:04;;;;;;;6.35;2.85;;;11.10;99.90;;;;;;1790421;79;21184;-81
2022/10/23 07:42:32;;;;;;;12.37;3.08;;;11.20;99.90;;;;;;1794551;79;21188;-74
2022/10/23 07:44:59;;;;;;;4.70;2.20;;;11.30;99.90;;;;;;1780519;79;21114;-77
2022/10/23 07:47:26;;;;;;;7.85;2.05;;;11.30;99.90;;;;;;1780461;79;21095;-78
2022/10/23 07:49:57;;;;;;;3.83;1.87;;;11.30;99.90;;;;;;1795066;79;21079;-75
2022/10/23 07:52:27;;;;;;;4.15;2.42;;;11.50;99.90;;;;;;1784604;79;21168;-74
2022/10/23 07:54:54;;;;;;;6.15;2.60;;;11.50;99.90;;;;;;1788545;79;21064;-75
2022/10/23 07:57:23;;;;;;;6.58;2.37;;;11.50;99.90;;;;;;1792868;79;21487;-72
2022/10/23 07:59:57;;;;;;;6.85;2.40;;;11.50;99.90;;;;;;1794315;79;21189;-76
2022/10/23 08:02:24;;;;;;;4.33;2.90;;;11.70;99.90;;;;;;1801995;79;21189;-79
2022/10/23 08:04:51;;;;;;;6.35;3.17;;;11.80;99.90;;;;;;1790250;79;21071;-78
2022/10/23 08:07:18;;;;;;;7.90;2.37;;;12.00;99.90;;;;;;1797951;79;21059;-77
2022/10/23 08:09:45;;;;;;;6.35;2.50;;;12.00;99.90;;;;;;1803027;78;21100;-74
2022/10/23 08:12:13;;;;;;;9.10;2.20;;;12.10;99.90;;;;;;1794682;78;21170;-75
2022/10/23 08:14:40;;;;;;;4.05;2.27;;;12.40;99.90;;;;;;1790501;79;21200;-77
2022/10/23 08:17:08;;;;;;;5.72;2.85;;;12.60;99.90;;;;;;1790263;78;21170;-78
2022/10/23 08:19:36;;;;;;;5.45;2.83;;;12.60;99.90;;;;;;1807777;79;21095;-74
2022/10/23 08:22:03;;;;;;;9.43;2.42;;;12.60;99.90;;;;;;1807691;79;21126;-75
2022/10/23 08:24:31;;;;;;;5.75;2.65;;;12.50;99.90;;;;;;1800316;79;21634;-79
2022/10/23 08:26:58;;;;;;;3.08;1.90;;;12.80;99.90;;;;;;1790060;79;21094;-76
2022/10/23 08:29:25;;;;;;;9.30;2.27;;;13.10;99.90;;;;;;1780608;79;21490;-75
2022/10/23 08:31:56;;;;;;;2.20;1.80;;;13.30;99.90;;;;;;1790140;79;21238;-76
2022/10/23 08:34:24;;;;;;;;;;;13.70;99.90;;;;;;1801501;79;21169;-75
2022/10/23 08:36:51;;;;;;;4.45;2.02;;;13.80;99.90;;;;;;1807555;79;20247;-77
2022/10/23 08:39:18;;;;;;;3.92;1.92;;;14.00;99.90;;;;;;1807711;78;21097;-81
2022/10/23 08:41:50;;;;;;;6.42;2.65;;;13.90;99.90;;;;;;1807693;79;21224;-78
2022/10/23 08:44:33;;;;;;;6.12;2.00;;;13.90;99.90;;;;;;1807639;79;21104;-82
2022/10/23 08:47:21;;;;;;;12.43;2.30;;;14.20;99.90;;;;;;1794327;79;21098;-73
2022/10/23 08:50:01;;;;;;;4.15;1.75;;;14.30;99.90;;;;;;1795102;79;21100;-73
2022/10/23 08:52:31;;;;;;;8.58;3.33;;;14.40;99.90;;;;;;1788257;79;21089;-72
2022/10/23 08:55:11;;;;;;;2.33;1.77;;;14.70;99.90;;;;;;1804250;78;21104;-73
2022/10/23 08:57:42;;;;;;;8.27;2.93;;;14.60;99.90;;;;;;1807897;79;21071;-72
2022/10/23 09:00:15;;;;;;;9.83;2.85;;;14.50;99.90;;;;;;1792365;79;21189;-73
2022/10/23 09:02:47;;;;;;;6.03;2.85;;;14.70;99.90;;;;;;1807559;79;21162;-71
2022/10/23 09:05:32;;;;;;;3.83;1.60;;;14.60;99.90;;;;;;1793821;79;21106;-73
2022/10/23 09:08:19;;;;;;;13.22;1.75;;;14.30;99.90;;;;;;1780391;79;21514;-72
2022/10/23 09:11:14;;;;;;;5.33;1.90;;;14.50;99.90;;;;;;1799961;79;21557;-71
2022/10/23 09:14:17;;;;;;;7.92;2.00;;;14.60;99.90;;;;;;1805178;79;21160;-73
2022/10/23 09:17:07;;;;;;;9.68;2.72;;;15.00;99.90;;;;;;1807643;79;21081;-74
2022/10/23 09:19:34;;;;;;;4.70;1.85;;;15.30;99.90;;;;;;1781549;79;21090;-75
2022/10/23 09:22:04;;;;;;;5.60;2.27;;;15.70;99.90;;;;;;1780596;80;21047;-74
2022/10/23 09:24:32;;;;;;;4.58;1.47;;;16.10;99.90;;;;;;1780520;79;21130;-74
2022/10/23 09:26:59;;;;;;;4.42;1.40;;;16.40;99.90;;;;;;1804588;79;21248;-76
2022/10/23 09:29:31;;;;;;;4.10;1.60;;;16.40;99.90;;;;;;1781001;79;21098;-79
2022/10/23 09:32:00;;;;;;;4.90;2.20;;;16.70;99.90;;;;;;1780789;79;21466;-77
2022/10/23 09:34:29;;;;;;;6.25;1.72;;;16.90;99.90;;;;;;1798528;79;21079;-76
2022/10/23 09:37:02;;;;;;;6.62;1.40;;;17.00;99.90;;;;;;1793236;79;21175;-75
2022/10/23 09:39:31;;;;;;;1.55;0.98;;;17.30;99.90;;;;;;1829108;77;21167;-75
2022/10/23 09:41:58;;;;;;;3.60;1.05;;;17.80;99.90;;;;;;1819428;78;21170;-74
2022/10/23 09:44:27;;;;;;;5.78;1.50;;;17.80;99.90;;;;;;1825743;78;21065;-78
2022/10/23 09:46:57;;;;;;;1.50;1.10;;;18.00;99.90;;;;;;1825241;79;21168;-80
2022/10/23 09:49:28;;;;;;;1.55;1.17;;;18.40;99.90;;;;;;1820748;78;21483;-78
2022/10/23 09:52:15;;;;;;;6.95;1.30;;;18.70;99.90;;;;;;1823013;78;21519;-77
2022/10/23 09:55:02;;;;;;;0.78;0.78;;;18.50;99.90;;;;;;1820385;78;21537;-76
2022/10/23 09:57:37;;;;;;;1.57;0.98;;;18.60;99.90;;;;;;1819979;78;21130;-76
2022/10/23 10:00:08;;;;;;;3.65;0.98;;;18.50;99.90;;;;;;1779306;80;21175;-73
2022/10/23 10:02:36;;;;;;;2.40;0.70;;;18.90;99.90;;;;;;1782394;80;21489;-73
2022/10/23 10:05:23;;;;;;;4.00;0.80;;;19.00;99.90;;;;;;1783915;78;21502;-69
2022/10/23 10:08:12;;;;;;;4.10;1.12;;;18.70;99.90;;;;;;1773235;80;21111;-72
2022/10/23 10:10:51;;;;;;;1.30;0.70;;;18.90;99.90;;;;;;1773264;78;21115;-71
2022/10/23 10:13:36;;;;;;;1.17;0.90;;;19.10;99.90;;;;;;1765561;79;21583;-71
2022/10/23 10:16:10;;;;;;;1.60;0.93;;;19.00;99.90;;;;;;1832214;77;21114;-77
2022/10/23 10:18:43;;;;;;;1.07;0.70;;;19.30;99.90;;;;;;1841523;77;21081;-79
2022/10/23 10:21:17;;;;;;;1.50;0.80;;;19.20;99.90;;;;;;1833989;78;21040;-82
2022/10/23 10:24:05;;;;;;;1.87;0.72;;;19.80;99.90;;;;;;1834002;78;21128;-73
2022/10/23 10:26:42;;;;;;;0.60;0.60;;;20.20;99.90;;;;;;1864860;77;21150;-83
2022/10/23 10:29:18;;;;;;;2.02;0.90;;;19.70;99.90;;;;;;1867840;76;21082;-79
2022/10/23 10:31:53;;;;;;;3.47;1.07;;;20.00;99.90;;;;;;1862103;76;21137;-76
2022/10/23 10:34:24;;;;;;;1.32;0.90;;;20.00;99.90;;;;;;1860927;76;21063;-75
2022/10/23 10:37:12;;;;;;;4.28;0.90;;;20.20;99.90;;;;;;1866834;75;21082;-81
2022/10/23 10:40:05;;;;;;;2.58;0.60;;;20.40;99.90;;;;;;1854457;76;21145;-84
2022/10/23 10:42:57;;;;;;;3.60;0.75;;;20.30;99.90;;;;;;1846430;76;21536;-78
2022/10/23 10:45:45;;;;;;;10.58;1.30;;;20.50;99.90;;;;;;1838726;77;21437;-83
2022/10/23 10:48:16;;;;;;;8.18;0.82;;;21.10;99.90;;;;;;1837548;77;21157;-74
2022/10/23 10:51:07;;;;;;;4.75;0.90;;;21.30;99.90;;;;;;1834932;77;21122;-77
2022/10/23 10:53:40;;;;;;;2.40;0.80;;;21.20;99.90;;;;;;1837021;78;21098;-80
2022/10/23 10:56:10;;;;;;;1.12;0.50;;;21.50;99.90;;;;;;1805476;78;21081;-74
2022/10/23 10:58:43;;;;;;;1.37;0.82;;;20.80;99.90;;;;;;1853951;77;21057;-74
2022/10/23 11:01:25;;;;;;;1.62;0.60;;;20.50;99.90;;;;;;1853336;77;21073;-72
2022/10/23 11:03:55;;;;;;;0.95;0.68;;;20.50;99.90;;;;;;1851773;76;21092;-71
2022/10/23 11:06:23;;;;;;;1.27;1.02;;;20.60;99.90;;;;;;1851521;77;21480;-72
2022/10/23 11:08:51;;;;;;;2.62;0.62;;;20.80;99.90;;;;;;1852644;77;21089;-72
2022/10/23 11:11:36;;;;;;;1.87;0.60;;;21.50;99.90;;;;;;1852730;77;21611;-74
2022/10/23 11:14:03;;;;;;;7.67;1.02;;;21.60;99.90;;;;;;1858405;76;21101;-72
2022/10/23 11:16:34;;;;;;;2.92;0.70;;;21.70;99.90;;;;;;1854178;76;21176;-72
2022/10/23 11:19:08;;;;;;;1.50;0.70;;;21.60;99.90;;;;;;1853235;76;21089;-74
2022/10/23 11:21:47;;;;;;;1.15;0.53;;;21.40;99.90;;;;;;1858020;76;21073;-72
2022/10/23 11:24:26;;;;;;;3.42;0.95;;;21.70;99.90;;;;;;1853085;77;21077;-74
2022/10/23 11:27:23;;;;;;;0.98;0.70;;;21.70;99.90;;;;;;1851570;76;21141;-79
2022/10/23 11:30:05;;;;;;;1.77;0.65;;;21.10;99.90;;;;;;1851945;77;21565;-71
2022/10/23 11:32:50;;;;;;;1.90;1.00;;;20.90;99.90;;;;;;1853612;76;21169;-71
2022/10/23 11:35:30;;;;;;;5.28;0.50;;;21.00;99.90;;;;;;1852148;76;21162;-70
2022/10/23 11:38:02;;;;;;;1.17;0.63;;;21.40;99.90;;;;;;1852787;74;21453;-74
2022/10/23 11:40:29;;;;;;;1.10;0.55;;;21.20;99.90;;;;;;1838164;77;21143;-74
2022/10/23 11:42:57;;;;;;;4.75;0.98;;;21.00;99.90;;;;;;1854059;77;21053;-72
2022/10/23 11:45:30;;;;;;;0.70;0.55;;;21.00;99.90;;;;;;1816388;77;21222;-74
2022/10/23 11:48:19;;;;;;;4.12;0.72;;;21.10;99.90;;;;;;1851223;76;21104;-74
2022/10/23 11:50:49;;;;;;;2.17;0.60;;;20.80;99.90;;;;;;1853390;77;21611;-72
2022/10/23 11:53:25;;;;;;;1.95;0.80;;;20.80;99.90;;;;;;1851183;77;21081;-74
2022/10/23 11:56:05;;;;;;;6.78;0.98;;;21.00;99.90;;;;;;1852761;77;21093;-71
2022/10/23 11:58:44;;;;;;;1.90;0.57;;;21.00;99.90;;;;;;1853783;77;21507;-76
2022/10/23 12:01:36;;;;;;;1.60;0.60;;;21.00;99.90;;;;;;1852639;76;21181;-75
2022/10/23 12:04:16;;;;;;;2.75;0.78;;;21.00;99.90;;;;;;1847102;76;21081;-73
2022/10/23 12:06:46;;;;;;;1.10;0.70;;;21.00;99.90;;;;;;1854676;77;21081;-76
2022/10/23 12:09:20;;;;;;;;;;;21.30;99.90;;;;;;1854397;76;21135;-74
2022/10/23 12:11:51;;;;;;;0.95;0.70;;;21.10;99.90;;;;;;1836145;77;20111;-75
2022/10/23 12:14:41;;;;;;;3.10;0.70;;;21.00;99.90;;;;;;1854481;76;21155;-73
2022/10/23 12:17:27;;;;;;;2.05;0.80;;;20.90;99.90;;;;;;1853855;76;21154;-76
2022/10/23 12:20:10;;;;;;;1.27;0.72;;;21.20;99.90;;;;;;1853478;76;21069;-73
2022/10/23 12:23:13;;;;;;;0.90;0.72;;;21.40;99.90;;;;;;1853241;77;21467;-75
2022/10/23 12:26:19;;;;;;;1.20;0.90;;;21.30;99.90;;;;;;1853601;76;21084;-74
2022/10/23 12:28:58;;;;;;;1.42;0.65;;;21.10;99.90;;;;;;1850951;77;21093;-74
2022/10/23 12:31:41;;;;;;;1.07;0.75;;;21.40;99.90;;;;;;1857653;77;21053;-74
2022/10/23 12:34:33;;;;;;;3.92;0.70;;;21.50;99.90;;;;;;1851155;76;21062;-74
2022/10/23 12:37:09;;;;;;;2.02;0.75;;;22.10;99.90;;;;;;1806703;77;21140;-74
2022/10/23 12:39:37;;;;;;;4.03;0.93;;;22.00;99.90;;;;;;1851800;77;21085;-73
2022/10/23 12:42:12;;;;;;;3.20;0.93;;;22.00;99.90;;;;;;1850244;76;21088;-74
2022/10/23 12:44:39;;;;;;;2.37;0.78;;;21.70;99.90;;;;;;1853120;76;21496;-74
2022/10/23 12:47:08;;;;;;;6.03;1.32;;;21.80;99.90;;;;;;1853397;76;21057;-74
2022/10/23 12:49:36;;;;;;;1.50;1.10;;;21.80;99.90;;;;;;1852069;77;21077;-74
2022/10/23 12:52:08;;;;;;;1.15;0.70;;;21.90;99.90;;;;;;1856324;77;21085;-73
2022/10/23 12:54:40;;;;;;;2.90;0.93;;;22.10;99.90;;;;;;1857977;76;21033;-73
2022/10/23 12:57:27;;;;;;;2.65;0.82;;;22.40;99.90;;;;;;1853030;77;21220;-74
2022/10/23 12:59:58;;;;;;;3.92;0.78;;;22.60;99.90;;;;;;1850668;76;21140;-73
2022/10/23 13:02:27;;;;;;;1.40;1.00;;;23.20;99.90;;;;;;1852603;77;21062;-73
2022/10/23 13:04:55;;;;;;;2.67;1.47;;;23.50;99.90;;;;;;1852886;77;21552;-73
2022/10/23 13:07:31;;;;;;;4.33;1.30;;;23.60;99.90;;;;;;1853293;76;21265;-73
2022/10/23 13:09:58;;;;;;;3.25;1.57;;;24.50;99.90;;;;;;1856599;77;21489;-74
2022/10/23 13:12:28;;;;;;;2.27;1.00;;;24.70;99.90;;;;;;1853026;76;21566;-75
2022/10/23 13:15:07;;;;;;;3.92;1.00;;;24.80;99.90;;;;;;1853914;76;21093;-74